Time;durP1;ratioP1;P1;durP2;ratioP2;P2;SDS_P1;SDS_P2;PMS_P1;PMS_P2;Temp;Humidity;BMP_temperature;BMP_pressure;BME280_temperature;BME280_humidity;BME280_pressure;Samples;Min_cycle;Max_cycle;Signal;HPM_P1;HPM_P2
2022/10/01 00:01:14;;;;;;;;;3.00;3.00;;;;;13.38;77.19;100496.38;4994628;28;46003;-85
2022/10/01 00:03:40;;;;;;;;;3.75;2.00;;;;;13.38;76.92;100496.38;4995142;28;45444;-85
2022/10/01 00:06:16;;;;;;;;;1.00;1.00;;;;;13.40;76.78;100486.69;4993704;28;68205;-85
2022/10/01 00:08:45;;;;;;;;;2.25;1.50;;;;;13.41;76.89;100482.31;4994721;28;45416;-85
2022/10/01 00:11:13;;;;;;;;;6.75;2.00;;;;;13.47;76.49;100488.13;4994796;28;45699;-85
2022/10/01 00:13:40;;;;;;;;;2.75;2.00;;;;;13.50;76.90;100480.16;4994808;28;45590;-85
2022/10/01 00:16:10;;;;;;;;;1.25;1.00;;;;;13.54;76.54;100473.84;4978239;28;45502;-86
2022/10/01 00:18:40;;;;;;;;;4.00;4.00;;;;;13.57;76.42;100480.69;4994573;28;46375;-85
2022/10/01 00:21:11;;;;;;;;;4.25;3.50;;;;;13.64;75.70;100474.28;4994294;28;45714;-85
2022/10/01 00:23:37;;;;;;;;;5.25;3.50;;;;;13.64;75.74;100469.03;4994568;28;45340;-85
2022/10/01 00:26:13;;;;;;;;;2.00;0.00;;;;;13.68;76.20;100478.44;4994743;28;45516;-85
2022/10/01 00:28:39;;;;;;;;;2.00;2.00;;;;;13.71;76.40;100467.84;4978149;28;45342;-85
2022/10/01 00:31:06;;;;;;;;;6.25;4.50;;;;;13.74;76.26;100459.88;4994520;28;45391;-85
2022/10/01 00:33:31;;;;;;;;;3.50;2.75;;;;;13.73;75.95;100436.38;5004502;28;45350;-85
2022/10/01 00:35:57;;;;;;;;;1.00;1.00;;;;;13.72;77.12;100471.31;5055716;28;53045;-85
2022/10/01 00:38:23;;;;;;;;;2.25;1.25;;;;;13.73;76.88;100460.78;5056327;28;45349;-85
2022/10/01 00:40:48;;;;;;;;;1.00;1.00;;;;;13.72;76.65;100445.16;5038368;28;45384;-85
2022/10/01 00:43:19;;;;;;;;;3.00;2.00;;;;;13.73;76.77;100449.47;5038414;28;45380;-85
2022/10/01 00:45:44;;;;;;;;;2.00;1.00;;;;;13.70;77.28;100439.97;5056716;28;45433;-85
2022/10/01 00:48:09;;;;;;;;;2.00;2.00;;;;;13.70;77.22;100439.13;5055237;28;70387;-85
2022/10/01 00:50:36;;;;;;;;;0.00;0.00;;;;;13.68;77.53;100460.13;5036932;28;45444;-87
2022/10/01 00:53:05;;;;;;;;;3.75;2.00;;;;;13.67;77.26;100436.66;5056100;28;45443;-85
2022/10/01 00:55:37;;;;;;;;;1.25;1.00;;;;;13.66;78.13;100438.44;5056458;28;45560;-85
2022/10/01 00:58:03;;;;;;;;;1.50;0.00;;;;;13.65;78.23;100434.13;5054730;28;46428;-85
2022/10/01 01:00:29;;;;;;;;;2.00;0.00;;;;;13.64;78.65;100421.97;5040047;28;45378;-88
2022/10/01 01:02:54;;;;;;;;;1.00;1.00;;;;;13.58;79.37;100440.56;5041703;28;45254;-87
2022/10/01 01:05:20;;;;;;;;;3.50;1.25;;;;;13.52;79.65;100427.75;5040269;28;69186;-86
2022/10/01 01:07:47;;;;;;;;;4.50;1.75;;;;;13.47;80.09;100441.06;5058106;28;46257;-85
2022/10/01 01:10:15;;;;;;;;;2.00;1.00;;;;;13.43;80.88;100439.50;5058156;28;45376;-87
2022/10/01 01:12:54;;;;;;;;;1.00;1.00;;;;;13.41;81.18;100436.13;5058216;28;45410;-87
2022/10/01 01:16:01;;;;;;;;;2.50;2.50;;;;;13.42;80.93;100429.09;5058260;28;45408;-86
2022/10/01 01:18:34;;;;;;;;;1.00;0.00;;;;;13.42;81.11;100432.56;5059618;28;47317;-84
2022/10/01 01:21:35;;;;;;;;;2.50;2.50;;;;;13.45;80.85;100444.66;5041117;28;46311;-85
2022/10/01 01:24:25;;;;;;;;;2.00;2.00;;;;;13.46;81.10;100431.50;4957865;28;45489;-85
2022/10/01 01:27:05;;;;;;;;;1.00;1.00;;;;;13.47;81.67;100424.53;4974254;28;45327;-86
2022/10/01 01:29:48;;;;;;;;;1.50;1.00;;;;;13.46;81.87;100418.44;4957754;28;46459;-86
2022/10/01 01:32:22;;;;;;;;;2.25;1.50;;;;;13.47;82.06;100401.84;4957489;28;45390;-85
2022/10/01 01:34:50;;;;;;;;;1.00;1.00;;;;;13.49;82.32;100402.59;4957536;28;45420;-87
2022/10/01 01:37:17;;;;;;;;;0.00;0.00;;;;;13.52;81.47;100375.47;4957639;28;45424;-85
2022/10/01 01:39:46;;;;;;;;;0.00;0.00;;;;;13.57;81.48;100377.88;4973849;28;46491;-86
2022/10/01 01:42:20;;;;;;;;;1.25;1.25;;;;;13.60;81.04;100381.19;4957547;28;45811;-85
2022/10/01 01:44:46;;;;;;;;;0.50;0.50;;;;;13.63;81.78;100388.91;4974071;28;45453;-86
2022/10/01 01:47:12;;;;;;;;;0.00;0.00;;;;;13.69;81.16;100398.22;4973740;28;45461;-86
2022/10/01 01:49:38;;;;;;;;;1.75;1.00;;;;;13.72;80.90;100390.22;4973817;28;47019;-84
2022/10/01 01:52:06;;;;;;;;;1.00;1.00;;;;;13.76;80.77;100389.13;4973599;28;45550;-85
2022/10/01 01:54:34;;;;;;;;;0.00;0.00;;;;;13.82;80.75;100391.47;4973722;28;45436;-85
2022/10/01 01:57:01;;;;;;;;;0.25;0.25;;;;;13.84;80.89;100386.19;4980460;28;45405;-86
2022/10/01 01:59:26;;;;;;;;;1.00;1.00;;;;;13.87;80.38;100386.00;5037335;28;46544;-85
2022/10/01 02:01:52;;;;;;;;;1.00;0.00;;;;;13.92;80.70;100400.56;5052954;28;45945;-85
2022/10/01 02:04:26;;;;;;;;;0.50;0.25;;;;;13.96;80.42;100393.41;5043345;28;66539;-85
2022/10/01 02:07:02;;;;;;;;;0.25;0.25;;;;;14.00;79.63;100388.88;5061160;28;45411;-85
2022/10/01 02:09:34;;;;;;;;;0.00;0.00;;;;;14.02;80.47;100389.66;5061006;28;45630;-86
2022/10/01 02:12:11;;;;;;;;;0.00;0.00;;;;;14.05;80.00;100385.13;5060884;28;45853;-85
2022/10/01 02:14:49;;;;;;;;;1.00;0.00;;;;;14.08;80.08;100392.00;5078074;28;45280;-85
2022/10/01 02:17:26;;;;;;;;;0.75;0.00;;;;;14.13;79.91;100369.91;5060521;28;45320;-86
2022/10/01 02:19:59;;;;;;;;;0.00;0.00;;;;;14.14;79.41;100373.38;5060775;28;45599;-85
2022/10/01 02:22:49;;;;;;;;;0.00;0.00;;;;;14.16;79.54;100371.50;5078869;27;45446;-86
2022/10/01 02:25:16;;;;;;;;;0.00;0.00;;;;;14.20;79.43;100374.81;5048945;28;45266;-85
2022/10/01 02:27:59;;;;;;;;;0.00;0.00;;;;;14.22;79.65;100376.44;5060843;28;45372;-86
2022/10/01 02:30:27;;;;;;;;;0.00;0.00;;;;;14.24;79.66;100373.75;5060541;28;46703;-85
2022/10/01 02:32:54;;;;;;;;;0.00;0.00;;;;;14.25;79.67;100381.53;5043724;27;45765;-86
2022/10/01 02:35:20;;;;;;;;;0.00;0.00;;;;;14.28;79.81;100367.44;5060839;28;45376;-86
2022/10/01 02:37:49;;;;;;;;;0.00;0.00;;;;;14.31;79.22;100367.28;5060720;28;45411;-85
2022/10/01 02:40:20;;;;;;;;;0.00;0.00;;;;;14.36;79.32;100367.91;5060602;28;46361;-85
2022/10/01 02:42:48;;;;;;;;;0.00;0.00;;;;;14.38;79.18;100388.78;5060371;28;45536;-85
2022/10/01 02:45:21;;;;;;;;;0.00;0.00;;;;;14.40;79.60;100356.34;5078341;28;45376;-84
2022/10/01 02:47:52;;;;;;;;;0.00;0.00;;;;;14.45;78.98;100353.47;5078604;28;45379;-85
2022/10/01 02:50:19;;;;;;;;;0.00;0.00;;;;;14.47;79.50;100342.00;5060285;28;45448;-85
2022/10/01 02:52:59;;;;;;;;;0.00;0.00;;;;;14.52;79.36;100333.91;5043239;28;45830;-85
2022/10/01 02:55:29;;;;;;;;;0.00;0.00;;;;;14.53;79.13;100344.31;5078735;27;45337;-86
2022/10/01 02:57:55;;;;;;;;;0.00;0.00;;;;;14.57;79.32;100338.91;5043367;28;45587;-86
2022/10/01 03:00:20;;;;;;;;;0.00;0.00;;;;;14.61;78.76;100330.00;5042791;28;48297;-86
2022/10/01 03:02:46;;;;;;;;;0.00;0.00;;;;;14.64;78.67;100337.72;5059733;28;56480;-85
2022/10/01 03:05:13;;;;;;;;;0.00;0.00;;;;;14.67;78.96;100324.44;5078264;28;45386;-87
2022/10/01 03:07:39;;;;;;;;;0.00;0.00;;;;;14.69;78.57;100326.06;5060415;28;45391;-86
2022/10/01 03:10:06;;;;;;;;;0.00;0.00;;;;;14.72;79.10;100325.03;5059978;28;47035;-85
2022/10/01 03:12:31;;;;;;;;;0.50;0.00;;;;;14.75;79.17;100318.81;5076931;28;45369;-86
2022/10/01 03:14:57;;;;;;;;;0.00;0.00;;;;;14.76;79.04;100321.31;5059689;28;45477;-85
2022/10/01 03:17:22;;;;;;;;;1.00;0.00;;;;;14.79;78.97;100302.00;5078003;28;45550;-85
2022/10/01 03:19:48;;;;;;;;;0.00;0.00;;;;;14.79;79.14;100321.19;5077967;27;46589;-85
2022/10/01 03:22:17;;;;;;;;;1.00;0.00;;;;;14.79;79.03;100313.31;5059005;28;67059;-85
2022/10/01 03:24:42;;;;;;;;;0.00;0.00;;;;;14.79;79.53;100330.81;5060371;28;45329;-85
2022/10/01 03:27:07;;;;;;;;;0.00;0.00;;;;;14.79;79.58;100329.03;5078021;27;45375;-84
2022/10/01 03:29:33;;;;;;;;;0.00;0.00;;;;;14.80;79.22;100320.25;5059280;27;46496;-84
2022/10/01 03:31:58;;;;;;;;;0.00;0.00;;;;;14.82;79.00;100309.69;5077799;28;45413;-86
2022/10/01 03:34:24;;;;;;;;;0.00;0.00;;;;;14.86;79.25;100319.09;5077930;27;45942;-86
2022/10/01 03:36:51;;;;;;;;;0.00;0.00;;;;;14.89;79.37;100317.16;5077878;28;45289;-86
2022/10/01 03:39:16;;;;;;;;;0.00;0.00;;;;;14.93;78.78;100314.34;5077559;28;46387;-87
2022/10/01 03:41:42;;;;;;;;;0.00;0.00;;;;;14.92;80.28;100313.50;5059721;28;45416;-88
2022/10/01 03:44:08;;;;;;;;;0.00;0.00;;;;;14.89;80.63;100303.19;5077584;27;45202;-86
2022/10/01 03:46:33;;;;;;;;;0.00;0.00;;;;;14.85;80.33;100309.53;5059868;28;45288;-85
2022/10/01 03:48:59;;;;;;;;;0.00;0.00;;;;;14.83;81.56;100319.25;5059194;28;48132;-86
2022/10/01 03:51:26;;;;;;;;;0.00;0.00;;;;;14.82;81.12;100317.53;5059571;28;45281;-85
2022/10/01 03:53:52;;;;;;;;;0.00;0.00;;;;;14.84;81.95;100341.88;5059396;28;45440;-85
2022/10/01 03:56:17;;;;;;;;;0.00;0.00;;;;;14.83;82.05;100334.97;5059317;28;50130;-87
2022/10/01 03:58:43;;;;;;;;;0.00;0.00;;;;;14.82;82.32;100328.03;5058739;28;46823;-86
2022/10/01 04:01:08;;;;;;;;;0.00;0.00;;;;;14.83;82.58;100358.56;5058126;28;71949;-85
2022/10/01 04:03:33;;;;;;;;;0.25;0.00;;;;;14.86;82.04;100346.13;5077137;28;54177;-86
2022/10/01 04:05:59;;;;;;;;;0.00;0.00;;;;;14.86;82.22;100351.38;5058508;28;59832;-86
2022/10/01 04:08:24;;;;;;;;;0.00;0.00;;;;;14.91;82.40;100358.97;5059026;28;45594;-86
2022/10/01 04:10:50;;;;;;;;;0.50;0.00;;;;;14.93;82.82;100377.25;5059131;28;45425;-87
2022/10/01 04:13:26;;;;;;;;;;;;;;;;;;;;;
2022/10/01 04:15:52;;;;;;;;;0.00;0.00;;;;;14.98;82.75;100365.59;5073014;27;71152;-86
2022/10/01 04:18:20;;;;;;;;;0.00;0.00;;;;;15.01;82.58;100372.47;5076774;27;46584;-86
2022/10/01 04:20:46;;;;;;;;;0.00;0.00;;;;;15.07;82.03;100372.97;5077179;27;45386;-87
2022/10/01 04:23:14;;;;;;;;;0.00;0.00;;;;;15.09;82.47;100386.84;5058858;28;45370;-87
2022/10/01 04:25:39;;;;;;;;;0.00;0.00;;;;;15.12;82.81;100387.59;5059441;27;45515;-87
2022/10/01 04:28:06;;;;;;;;;0.00;0.00;;;;;15.12;83.19;100401.56;5058512;28;47516;-88
2022/10/01 04:30:37;;;;;;;;;0.00;0.00;;;;;15.14;82.76;100391.00;5042043;28;45864;-87
2022/10/01 04:33:04;;;;;;;;;0.00;0.00;;;;;15.15;83.63;100411.88;5042028;28;45388;-87
2022/10/01 04:35:29;;;;;;;;;0.00;0.00;;;;;15.17;82.61;100407.38;5077030;28;45564;-87
2022/10/01 04:38:00;;;;;;;;;0.00;0.00;;;;;15.20;82.96;100401.16;5058581;28;45413;-86
2022/10/01 04:40:26;;;;;;;;;0.00;0.00;;;;;15.22;82.36;100408.00;5076718;27;45655;-85
2022/10/01 04:42:51;;;;;;;;;0.00;0.00;;;;;15.23;82.80;100412.31;5076199;27;45369;-85
2022/10/01 04:45:17;;;;;;;;;0.00;0.00;;;;;15.26;83.02;100419.16;5076916;27;45499;-86
2022/10/01 04:47:50;;;;;;;;;0.00;0.00;;;;;15.32;82.79;100429.31;5076630;28;46604;-86
2022/10/01 04:50:16;;;;;;;;;0.50;0.00;;;;;15.37;82.13;100429.94;5058421;28;45392;-86
2022/10/01 04:52:42;;;;;;;;;0.00;0.00;;;;;15.41;82.58;100441.09;5058326;28;45477;-86
2022/10/01 04:55:07;;;;;;;;;0.00;0.00;;;;;15.45;82.64;100437.38;5076559;27;45476;-85
2022/10/01 04:57:34;;;;;;;;;0.00;0.00;;;;;15.51;82.17;100446.69;5075982;28;46323;-85
2022/10/01 05:00:00;;;;;;;;;0.00;0.00;;;;;15.56;81.99;100440.25;5058338;28;45793;-85
2022/10/01 05:02:28;;;;;;;;;0.00;0.00;;;;;15.58;81.96;100437.56;5076310;28;45436;-86
2022/10/01 05:04:53;;;;;;;;;0.00;0.00;;;;;15.60;81.91;100444.44;5076491;28;45321;-85
2022/10/01 05:07:18;;;;;;;;;0.00;0.00;;;;;15.62;81.75;100442.56;5076285;28;46109;-85
2022/10/01 05:09:44;;;;;;;;;0.00;0.00;;;;;15.65;81.05;100437.13;5076400;28;45345;-85
2022/10/01 05:12:09;;;;;;;;;0.00;0.00;;;;;15.68;81.35;100442.22;5057945;28;45353;-85
2022/10/01 05:14:35;;;;;;;;;0.00;0.00;;;;;15.74;80.82;100450.72;5076281;27;45535;-84
2022/10/01 05:17:00;;;;;;;;;1.00;0.00;;;;;15.78;81.06;100462.75;5076044;28;46184;-85
2022/10/01 05:19:28;;;;;;;;;0.00;0.00;;;;;15.82;80.72;100465.13;5041175;27;45586;-85
2022/10/01 05:21:53;;;;;;;;;0.00;0.00;;;;;15.86;80.41;100468.41;5076204;28;45422;-85
2022/10/01 05:24:19;;;;;;;;;0.00;0.00;;;;;15.87;80.54;100470.94;5076327;28;45375;-85
2022/10/01 05:26:44;;;;;;;;;0.00;0.00;;;;;15.87;80.19;100468.31;5057494;28;48519;-85
2022/10/01 05:29:10;;;;;;;;;0.00;0.00;;;;;15.90;79.96;100472.59;5075948;27;45478;-85
2022/10/01 05:31:35;;;;;;;;;0.00;0.00;;;;;15.92;80.59;100475.13;5076141;28;45473;-85
2022/10/01 05:34:00;;;;;;;;;1.00;0.00;;;;;15.93;79.96;100489.94;5075797;28;45344;-85
2022/10/01 05:36:26;;;;;;;;;0.00;0.00;;;;;15.93;80.08;100479.44;5078325;27;46092;-85
2022/10/01 05:38:51;;;;;;;;;0.00;0.00;;;;;15.95;79.63;100490.69;5061541;28;45369;-85
2022/10/01 05:41:17;;;;;;;;;0.00;0.00;;;;;15.94;79.91;100495.09;5079227;27;45363;-87
2022/10/01 05:43:43;;;;;;;;;0.00;0.00;;;;;15.95;79.27;100504.66;5079641;28;45574;-85
2022/10/01 05:46:09;;;;;;;;;0.00;0.00;;;;;15.98;79.48;100519.41;5079345;27;47120;-84
2022/10/01 05:48:35;;;;;;;;;0.00;0.00;;;;;15.99;79.22;100513.19;5079542;27;45430;-84
2022/10/01 05:51:15;;;;;;;;;0.00;0.00;;;;;16.00;79.23;100518.38;5061517;27;45391;-84
2022/10/01 05:53:40;;;;;;;;;0.00;0.00;;;;;16.02;78.91;100520.91;5075410;27;45598;-85
2022/10/01 05:56:06;;;;;;;;;0.00;0.00;;;;;16.04;79.07;100525.13;5061060;27;45404;-85
2022/10/01 05:58:31;;;;;;;;;0.00;0.00;;;;;16.06;78.81;100535.56;5061012;28;45434;-84
2022/10/01 06:00:57;;;;;;;;;0.00;0.00;;;;;16.05;78.98;100537.34;5061243;28;45399;-85
2022/10/01 06:03:22;;;;;;;;;0.00;0.00;;;;;16.08;78.93;100540.75;5061147;28;45503;-84
2022/10/01 06:05:48;;;;;;;;;0.00;0.00;;;;;16.12;78.91;100542.25;5060830;28;47215;-85
2022/10/01 06:08:13;;;;;;;;;0.00;0.00;;;;;16.12;78.97;100552.75;5060115;28;60292;-85
2022/10/01 06:10:39;;;;;;;;;0.00;0.00;;;;;16.14;78.46;100554.38;5079274;28;45345;-85
2022/10/01 06:13:05;;;;;;;;;0.00;0.00;;;;;16.11;78.55;100562.41;5060627;28;53313;-86
2022/10/01 06:15:37;;;;;;;;;1.50;0.00;;;;;16.10;78.48;100568.59;5078418;28;59583;-85
2022/10/01 06:18:09;;;;;;;;;1.00;0.00;;;;;16.11;78.33;100574.72;5060682;28;45374;-85
2022/10/01 06:20:35;;;;;;;;;0.00;0.00;;;;;16.09;77.88;100577.41;5079107;28;45329;-85
2022/10/01 06:23:01;;;;;;;;;0.00;0.00;;;;;16.08;78.01;100580.13;5060396;28;45574;-85
2022/10/01 06:25:30;;;;;;;;;0.00;0.00;;;;;16.08;77.90;100575.72;5060586;28;45803;-85
2022/10/01 06:27:57;;;;;;;;;3.25;0.00;;;;;16.10;77.81;100576.47;5078959;28;45455;-86
2022/10/01 06:30:25;;;;;;;;;0.00;0.00;;;;;16.12;77.83;100584.25;5078863;27;45380;-85
2022/10/01 06:32:52;;;;;;;;;0.00;0.00;;;;;16.12;77.95;100587.75;5078728;27;45456;-85
2022/10/01 06:35:19;;;;;;;;;0.00;0.00;;;;;16.12;77.52;100586.88;5078628;27;46206;-85
2022/10/01 06:37:45;;;;;;;;;0.00;0.00;;;;;16.13;77.24;100591.22;5078530;28;45302;-84
2022/10/01 06:40:10;;;;;;;;;0.00;0.00;;;;;16.15;77.24;100594.63;5078804;28;45478;-83
2022/10/01 06:42:35;;;;;;;;;1.00;0.00;;;;;16.13;76.67;100596.47;5076667;27;62368;-84
2022/10/01 06:45:01;;;;;;;;;1.00;0.00;;;;;16.12;76.24;100600.91;5060419;28;45384;-83
2022/10/01 06:47:26;;;;;;;;;1.50;0.00;;;;;16.12;76.75;100598.25;5059179;28;67333;-83
2022/10/01 06:49:51;;;;;;;;;0.00;0.00;;;;;16.11;76.38;100599.19;5078687;28;45348;-83
2022/10/01 06:55:01;;;;;;;;;2.50;0.00;;;;;16.15;75.87;100602.50;5062818;28;45495;-83
2022/10/01 06:57:27;;;;;;;;;1.25;0.00;;;;;16.14;76.15;100606.91;5078194;28;45470;-83
2022/10/01 06:59:52;;;;;;;;;1.75;0.00;;;;;16.16;75.97;100607.66;5060239;28;45416;-83
2022/10/01 07:02:27;;;;;;;;;0.00;0.00;;;;;16.15;75.60;100618.25;5059264;28;61517;-85
2022/10/01 07:04:59;;;;;;;;;1.00;0.00;;;;;16.17;75.26;100616.38;5078072;27;47170;-83
2022/10/01 07:07:31;;;;;;;;;0.00;0.00;;;;;16.18;75.25;100620.72;5077998;28;45313;-85
2022/10/01 07:09:58;;;;;;;;;0.00;0.00;;;;;16.20;75.04;100635.44;5078508;28;45302;-81
2022/10/01 07:12:24;;;;;;;;;4.00;1.00;;;;;16.25;75.28;100650.94;5060196;28;62604;-83
2022/10/01 07:14:49;;;;;;;;;0.25;0.25;;;;;16.28;73.84;100655.19;5078173;28;45506;-83
2022/10/01 07:17:14;;;;;;;;;4.00;0.00;;;;;16.29;73.53;100662.13;5077652;28;58557;-83
2022/10/01 07:19:40;;;;;;;;;2.75;0.75;;;;;16.29;73.32;100655.13;5078362;28;45305;-83
2022/10/01 07:22:05;;;;;;;;;2.00;0.00;;;;;16.32;73.29;100656.72;5076990;28;56218;-85
2022/10/01 07:24:30;;;;;;;;;1.00;0.00;;;;;16.33;72.82;100656.66;5078032;28;46432;-85
2022/10/01 07:26:56;;;;;;;;;0.50;0.50;;;;;16.34;72.86;100673.25;5059955;27;45440;-85
2022/10/01 07:29:22;;;;;;;;;0.00;0.00;;;;;16.34;72.62;100674.09;5077168;28;56513;-84
2022/10/01 07:31:49;;;;;;;;;0.25;0.00;;;;;16.35;72.42;100674.94;5077815;28;45358;-83
2022/10/01 07:34:14;;;;;;;;;2.00;1.00;;;;;16.36;72.19;100680.13;5077520;28;46395;-83
2022/10/01 07:36:44;;;;;;;;;0.00;0.00;;;;;16.38;72.85;100686.16;5077477;27;45258;-83
2022/10/01 07:39:12;;;;;;;;;2.75;0.25;;;;;16.41;72.41;100693.84;5077823;28;45374;-81
2022/10/01 07:41:37;;;;;;;;;0.00;0.00;;;;;16.44;72.54;100683.19;5077669;27;45411;-82
2022/10/01 07:44:03;;;;;;;;;3.00;0.25;;;;;16.49;72.67;100680.28;5076723;28;68868;-82
2022/10/01 07:46:29;;;;;;;;;3.25;1.00;;;;;16.51;72.58;100688.97;5059379;28;45379;-84
2022/10/01 07:48:54;;;;;;;;;0.00;0.00;;;;;16.54;72.86;100696.66;5059401;27;45543;-83
2022/10/01 07:51:19;;;;;;;;;0.00;0.00;;;;;16.58;72.91;100695.53;5059014;28;45760;-82
2022/10/01 07:53:45;;;;;;;;;3.75;1.00;;;;;16.60;72.72;100693.72;5077096;27;46283;-82
2022/10/01 07:56:10;;;;;;;;;1.25;0.00;;;;;16.67;72.78;100698.63;5077391;28;45471;-82
2022/10/01 07:58:36;;;;;;;;;2.00;0.00;;;;;16.71;72.88;100706.25;5076780;28;45416;-82
2022/10/01 08:01:05;;;;;;;;;5.50;0.00;;;;;16.79;72.84;100708.44;5076832;28;53375;-81
2022/10/01 08:03:30;;;;;;;;;1.00;0.50;;;;;16.84;72.54;100714.31;5059075;28;45442;-82
2022/10/01 08:05:55;;;;;;;;;2.00;0.50;;;;;16.90;71.93;100721.03;5076723;27;56257;-82
2022/10/01 08:08:21;;;;;;;;;1.75;0.50;;;;;16.95;72.82;100716.38;5077019;28;50601;-83
2022/10/01 08:10:48;;;;;;;;;0.75;0.00;;;;;17.00;71.78;100711.69;5059333;28;45305;-82
2022/10/01 08:13:16;;;;;;;;;2.75;0.00;;;;;17.03;71.71;100722.91;5077006;27;47202;-83
2022/10/01 08:15:43;;;;;;;;;3.75;0.50;;;;;17.11;71.45;100732.16;5077169;27;45361;-84
2022/10/01 08:18:09;;;;;;;;;0.50;0.00;;;;;17.13;70.91;100728.47;5077147;28;45333;-82
2022/10/01 08:20:35;;;;;;;;;1.00;1.00;;;;;17.14;70.49;100730.19;5076762;28;45476;-82
2022/10/01 08:23:08;;;;;;;;;0.50;0.00;;;;;17.09;69.81;100726.13;5076538;28;57239;-82
2022/10/01 08:25:33;;;;;;;;;3.00;1.00;;;;;17.08;69.43;100737.56;5058837;28;45343;-82
2022/10/01 08:27:59;;;;;;;;;2.75;1.00;;;;;17.03;70.33;100743.94;5077026;28;45365;-82
2022/10/01 08:30:25;;;;;;;;;0.00;0.00;;;;;17.03;70.20;100748.31;5076902;28;45403;-82
2022/10/01 08:32:58;;;;;;;;;1.75;0.25;;;;;17.02;70.12;100749.28;5076522;27;47122;-82
2022/10/01 08:35:24;;;;;;;;;2.75;1.00;;;;;17.02;70.04;100749.28;5076822;28;45430;-82
2022/10/01 08:37:49;;;;;;;;;2.00;0.75;;;;;17.05;70.24;100764.03;5076891;28;45794;-82
2022/10/01 08:40:16;;;;;;;;;0.75;0.75;;;;;17.07;69.50;100763.03;5075983;28;65120;-82
2022/10/01 08:43:00;;;;;;;;;2.00;0.00;;;;;17.07;69.19;100764.78;5076610;28;46499;-82
2022/10/01 08:45:31;;;;;;;;;2.50;0.75;;;;;17.10;69.11;100765.47;5058582;28;45803;-82
2022/10/01 08:48:15;;;;;;;;;2.25;0.00;;;;;17.13;69.16;100782.88;5058218;28;45399;-82
2022/10/01 08:51:04;;;;;;;;;3.25;1.00;;;;;17.17;69.26;100784.38;5077015;27;45498;-82
2022/10/01 08:53:38;;;;;;;;;1.50;0.00;;;;;17.18;68.69;100781.69;5058154;28;47345;-82
2022/10/01 08:56:05;;;;;;;;;4.00;1.00;;;;;17.24;69.05;100791.00;5058950;28;45309;-82
2022/10/01 08:58:39;;;;;;;;;6.25;0.50;;;;;17.31;68.37;100791.50;5059007;28;45402;-82
2022/10/01 09:01:04;;;;;;;;;1.00;1.00;;;;;17.35;68.54;100800.94;5059125;28;45398;-82
2022/10/01 09:03:31;;;;;;;;;2.00;0.75;;;;;17.38;69.03;100806.88;5075355;27;65022;-82
2022/10/01 09:06:18;;;;;;;;;2.75;1.00;;;;;17.41;69.13;100805.84;5058283;28;45478;-82
2022/10/01 09:08:52;;;;;;;;;1.00;1.00;;;;;17.47;68.76;100799.38;5076409;28;45441;-81
2022/10/01 09:11:22;;;;;;;;;1.75;1.00;;;;;17.51;68.28;100808.78;5075294;28;45317;-83
2022/10/01 09:14:03;;;;;;;;;3.00;1.00;;;;;17.47;69.08;100810.75;5058308;28;46402;-82
2022/10/01 09:16:52;;;;;;;;;1.75;1.00;;;;;17.51;68.65;100806.16;5075818;28;45356;-82
2022/10/01 09:19:44;;;;;;;;;5.75;1.00;;;;;17.54;68.49;100813.91;5076174;28;45414;-82
2022/10/01 09:22:38;;;;;;;;;3.00;0.00;;;;;17.56;68.50;100823.38;4974018;28;45546;-82
2022/10/01 09:25:26;;;;;;;;;3.75;1.00;;;;;17.59;68.71;100832.91;4974160;28;47392;-82
2022/10/01 09:27:59;;;;;;;;;0.00;0.00;;;;;17.58;68.64;100834.66;4974173;28;45435;-82
2022/10/01 09:30:27;;;;;;;;;4.50;2.00;;;;;17.57;69.12;100843.53;4958026;28;45379;-82
2022/10/01 09:33:02;;;;;;;;;1.00;0.00;;;;;17.61;68.60;100841.56;4970301;28;45458;-82
2022/10/01 09:35:34;;;;;;;;;1.00;0.00;;;;;17.63;68.45;100841.47;4954638;28;45508;-81
2022/10/01 09:38:10;;;;;;;;;2.25;0.50;;;;;17.69;68.52;100833.22;4938119;28;45781;-82
2022/10/01 09:40:48;;;;;;;;;3.75;1.50;;;;;17.76;68.67;100847.75;4954576;28;45380;-82
2022/10/01 09:43:14;;;;;;;;;2.25;0.75;;;;;17.83;68.34;100849.09;4954412;28;45335;-81
2022/10/01 09:45:39;;;;;;;;;5.00;1.00;;;;;17.88;68.30;100854.09;4953939;28;47158;-82
2022/10/01 09:48:23;;;;;;;;;4.00;2.00;;;;;17.96;67.92;100852.72;4954287;28;45477;-81
2022/10/01 09:50:54;;;;;;;;;2.00;1.50;;;;;18.01;67.13;100854.25;4954648;28;45340;-82
2022/10/01 09:53:30;;;;;;;;;3.00;1.00;;;;;18.05;66.66;100861.88;4938334;28;45485;-82
2022/10/01 09:56:01;;;;;;;;;5.50;2.00;;;;;18.09;66.92;100857.28;4954469;28;46552;-83
2022/10/01 09:58:28;;;;;;;;;1.00;1.00;;;;;18.11;66.44;100866.78;4970000;28;45822;-81
2022/10/01 10:00:53;;;;;;;;;3.00;2.00;;;;;18.09;66.25;100871.31;5042671;28;45361;-82
2022/10/01 10:03:26;;;;;;;;;3.00;2.00;;;;;18.15;66.39;100870.94;5075671;27;45412;-81
2022/10/01 10:05:51;;;;;;;;;2.75;1.75;;;;;18.17;66.00;100868.22;5057758;28;46422;-82
2022/10/01 10:08:29;;;;;;;;;2.50;0.50;;;;;18.23;65.42;100870.47;5056846;28;58340;-82
2022/10/01 10:11:01;;;;;;;;;3.00;1.50;;;;;18.27;65.97;100876.44;5040645;28;45420;-82
2022/10/01 10:13:37;;;;;;;;;4.50;1.00;;;;;18.41;65.28;100878.25;5057444;28;45376;-82
2022/10/01 10:16:33;;;;;;;;;1.00;1.00;;;;;18.50;64.50;100891.72;5057161;28;47092;-82
2022/10/01 10:19:02;;;;;;;;;2.00;1.50;;;;;18.64;64.55;100892.69;5055327;28;45589;-82
2022/10/01 10:21:30;;;;;;;;;6.00;2.00;;;;;18.76;64.02;100884.88;5076070;27;45285;-82
2022/10/01 10:24:00;;;;;;;;;4.00;1.25;;;;;18.88;63.91;100893.00;5078999;28;45433;-82
2022/10/01 10:26:32;;;;;;;;;4.00;2.25;;;;;18.98;62.97;100898.56;5078935;27;45967;-82
2022/10/01 10:28:59;;;;;;;;;4.50;1.00;;;;;19.03;62.51;100885.94;5078446;27;45781;-82
2022/10/01 10:31:27;;;;;;;;;5.75;3.00;;;;;19.15;63.33;100896.59;5060776;28;45419;-81
2022/10/01 10:33:57;;;;;;;;;1.75;1.75;;;;;19.22;62.16;100886.47;5060621;28;45372;-82
2022/10/01 10:36:28;;;;;;;;;1.75;1.75;;;;;19.28;61.60;100903.75;5078468;28;45522;-82
2022/10/01 10:38:54;;;;;;;;;2.00;1.00;;;;;19.33;61.11;100901.63;5060463;28;46223;-82
2022/10/01 10:41:25;;;;;;;;;1.00;1.00;;;;;19.42;61.67;100898.41;5078354;28;64003;-82
2022/10/01 10:43:56;;;;;;;;;3.25;1.00;;;;;19.48;61.25;100905.97;5060993;28;45479;-81
2022/10/01 10:46:28;;;;;;;;;1.25;1.25;;;;;19.52;60.11;100912.75;5060544;27;45407;-81
2022/10/01 10:48:59;;;;;;;;;2.50;1.00;;;;;19.51;58.94;100910.19;5060812;28;45292;-82
2022/10/01 10:51:26;;;;;;;;;5.50;1.00;;;;;19.50;59.13;100908.47;5060419;28;45325;-82
2022/10/01 10:53:52;;;;;;;;;2.25;1.75;;;;;19.51;58.74;100913.66;5060562;28;45373;-83
2022/10/01 10:56:22;;;;;;;;;2.00;1.25;;;;;19.51;57.54;100920.75;5060041;28;46991;-84
2022/10/01 10:58:49;;;;;;;;;2.00;1.00;;;;;19.51;57.72;100923.41;5059618;28;45342;-84
2022/10/01 11:01:18;;;;;;;;;2.00;0.75;;;;;19.50;57.86;100924.31;5078257;28;45432;-85
2022/10/01 11:03:49;;;;;;;;;1.25;1.00;;;;;19.52;57.32;100931.22;5059151;28;45326;-83
2022/10/01 11:06:17;;;;;;;;;1.75;1.00;;;;;19.51;58.05;100928.66;5078136;27;46416;-84
2022/10/01 11:08:44;;;;;;;;;4.50;2.00;;;;;19.52;57.23;100923.31;5059619;28;45658;-83
2022/10/01 11:11:33;;;;;;;;;3.00;3.00;;;;;19.56;57.68;100937.16;5061548;28;45496;-81
2022/10/01 11:14:22;;;;;;;;;5.25;1.75;;;;;19.61;57.33;100931.56;5077766;28;45501;-83
2022/10/01 11:17:00;;;;;;;;;1.00;1.00;;;;;19.65;56.85;100943.63;5059111;28;45305;-81
2022/10/01 11:19:57;;;;;;;;;4.25;3.25;;;;;19.65;56.50;100939.22;5077477;27;45621;-83
2022/10/01 11:22:52;;;;;;;;;2.25;2.00;;;;;19.66;56.39;100934.78;5077295;27;45427;-83
2022/10/01 11:25:26;;;;;;;;;4.00;1.00;;;;;19.67;56.61;100936.47;5077525;28;45371;-83
2022/10/01 11:28:20;;;;;;;;;4.25;1.75;;;;;19.75;56.84;100941.31;5058471;28;46798;-82
2022/10/01 11:31:01;;;;;;;;;7.00;1.75;;;;;19.89;56.31;100944.75;5057317;27;45584;-82
2022/10/01 11:34:02;;;;;;;;;0.75;0.00;;;;;20.03;55.34;100951.75;5057582;28;45257;-84
2022/10/01 11:36:40;;;;;;;;;1.75;0.25;;;;;20.10;54.75;100947.78;4958947;28;45470;-83
2022/10/01 11:39:16;;;;;;;;;3.25;2.00;;;;;20.19;54.69;100943.69;4958390;28;46474;-83
2022/10/01 11:41:44;;;;;;;;;1.00;1.00;;;;;20.45;53.18;100954.31;4941631;28;46007;-84